createdAt,value
2022-09-03T00:02:12.038Z,41.71
2022-09-03T00:04:40.465Z,41.74
2022-09-03T00:07:07.296Z,41.10
2022-09-03T00:09:34.099Z,41.24
2022-09-03T00:12:01.544Z,41.08
2022-09-03T00:14:28.351Z,40.58
2022-09-03T00:16:55.226Z,40.48
2022-09-03T00:19:22.176Z,40.50
2022-09-03T00:21:49.403Z,43.50
2022-09-03T00:24:16.200Z,45.79
2022-09-03T00:26:43.008Z,46.96
2022-09-03T00:29:09.901Z,43.49
2022-09-03T00:31:38.268Z,42.58
2022-09-03T00:34:05.490Z,42.14
2022-09-03T00:36:32.385Z,41.42
2022-09-03T00:38:59.184Z,41.37
2022-09-03T00:41:25.991Z,40.97
2022-09-03T00:43:52.797Z,41.03
2022-09-03T00:46:19.783Z,40.59
2022-09-03T00:48:46.630Z,40.56
2022-09-03T00:51:13.641Z,40.71
2022-09-03T00:53:40.428Z,40.93
2022-09-03T00:56:07.366Z,43.29
2022-09-03T00:58:34.164Z,43.43
2022-09-03T01:01:00.967Z,46.90
2022-09-03T01:03:27.803Z,44.84
2022-09-03T01:05:56.526Z,42.91
2022-09-03T01:08:26.498Z,42.37
2022-09-03T01:10:53.482Z,41.93
2022-09-03T01:13:20.427Z,41.44
2022-09-03T01:15:47.270Z,41.21
2022-09-03T01:18:14.144Z,41.10
2022-09-03T01:20:40.932Z,40.92
2022-09-03T01:23:07.712Z,40.89
2022-09-03T01:25:35.010Z,40.65
2022-09-03T01:28:02.021Z,40.46
2022-09-03T01:30:28.818Z,43.55
2022-09-03T01:32:55.917Z,43.33
2022-09-03T01:35:22.810Z,45.35
2022-09-03T01:37:50.704Z,46.29
2022-09-03T01:40:17.554Z,43.81
2022-09-03T01:42:44.346Z,42.86
2022-09-03T01:45:12.653Z,42.32
2022-09-03T01:47:39.486Z,41.75
2022-09-03T01:50:06.276Z,41.23
2022-09-03T01:52:33.082Z,41.08
2022-09-03T01:54:59.902Z,40.87
2022-09-03T01:57:36.924Z,40.76
2022-09-03T02:00:04.237Z,40.71
2022-09-03T02:02:31.627Z,40.63
2022-09-03T02:04:59.161Z,40.21
2022-09-03T02:07:25.966Z,41.50
2022-09-03T02:09:52.752Z,43.52
2022-09-03T02:12:20.282Z,42.44
2022-09-03T02:14:47.128Z,47.32
2022-09-03T02:17:13.914Z,44.50
2022-09-03T02:19:40.857Z,43.31
2022-09-03T02:22:07.785Z,42.27
2022-09-03T02:24:34.575Z,41.66
2022-09-03T02:27:02.336Z,41.74
2022-09-03T02:29:29.181Z,41.32
2022-09-03T02:31:55.984Z,41.00
2022-09-03T02:34:22.795Z,40.64
2022-09-03T02:36:49.653Z,40.58
2022-09-03T02:39:16.514Z,40.51
2022-09-03T02:41:44.537Z,40.61
2022-09-03T02:44:11.377Z,40.29
2022-09-03T02:46:38.168Z,43.03
2022-09-03T02:49:05.057Z,42.70
2022-09-03T02:51:31.886Z,46.09
2022-09-03T02:53:58.887Z,46.19
2022-09-03T02:56:27.819Z,43.80
2022-09-03T02:58:54.646Z,42.39
2022-09-03T03:01:23.900Z,41.86
2022-09-03T03:03:51.185Z,41.67
2022-09-03T03:06:20.455Z,41.30
2022-09-03T03:08:47.277Z,40.73
2022-09-03T03:11:17.874Z,40.53
2022-09-03T03:13:44.765Z,40.71
2022-09-03T03:16:11.604Z,40.41
2022-09-03T03:18:39.205Z,40.35
2022-09-03T03:21:06.081Z,40.10
2022-09-03T03:23:32.895Z,40.88
2022-09-03T03:25:59.704Z,43.16
2022-09-03T03:28:27.008Z,42.42
2022-09-03T03:30:54.420Z,46.88
2022-09-03T03:33:21.248Z,44.67
2022-09-03T03:35:48.800Z,42.84
2022-09-03T03:38:15.694Z,41.99
2022-09-03T03:40:42.713Z,41.56
2022-09-03T03:43:09.533Z,41.09
2022-09-03T03:45:36.407Z,40.86
2022-09-03T03:48:03.310Z,40.71
2022-09-03T03:50:30.151Z,40.90
2022-09-03T03:52:56.948Z,40.07
2022-09-03T03:55:23.744Z,40.04
2022-09-03T03:57:54.120Z,40.20
2022-09-03T04:00:20.955Z,39.95
2022-09-03T04:02:47.786Z,40.53
2022-09-03T04:05:15.573Z,42.71
2022-09-03T04:07:44.969Z,42.49
2022-09-03T04:10:11.817Z,46.98
2022-09-03T04:12:38.703Z,44.25
2022-09-03T04:15:06.720Z,42.74
2022-09-03T04:17:33.532Z,41.91
2022-09-03T04:20:00.344Z,41.42
2022-09-03T04:22:27.140Z,41.00
2022-09-03T04:24:53.975Z,40.97
2022-09-03T04:27:20.801Z,40.38
2022-09-03T04:29:47.663Z,40.50
2022-09-03T04:32:33.224Z,40.21
2022-09-03T04:35:00.107Z,40.17
2022-09-03T04:37:27.001Z,40.16
2022-09-03T04:39:54.245Z,40.18
2022-09-03T04:42:21.963Z,42.79
2022-09-03T04:44:48.983Z,42.68
2022-09-03T04:47:16.144Z,45.92
2022-09-03T04:49:42.981Z,44.92
2022-09-03T04:52:10.237Z,43.04
2022-09-03T04:54:37.248Z,41.89
2022-09-03T04:57:04.239Z,41.55
2022-09-03T04:59:31.077Z,41.24
2022-09-03T05:01:57.964Z,40.53
2022-09-03T05:04:24.831Z,40.33
2022-09-03T05:06:51.666Z,40.44
2022-09-03T05:09:18.511Z,40.43
2022-09-03T05:11:45.409Z,40.06
2022-09-03T05:14:12.636Z,39.99
2022-09-03T05:16:39.592Z,39.91
2022-09-03T05:19:07.960Z,39.87
2022-09-03T05:21:35.979Z,41.54
2022-09-03T05:24:02.953Z,42.94
2022-09-03T05:26:29.748Z,42.42
2022-09-03T05:28:57.041Z,46.05
2022-09-03T05:31:26.042Z,43.59
2022-09-03T05:33:53.001Z,42.40
2022-09-03T05:36:19.846Z,41.66
2022-09-03T05:38:47.444Z,40.94
2022-09-03T05:41:14.718Z,40.62
2022-09-03T05:43:41.519Z,40.72
2022-09-03T05:46:09.184Z,40.40
2022-09-03T05:48:36.109Z,40.29
2022-09-03T05:51:03.026Z,40.26
2022-09-03T05:53:29.927Z,40.13
2022-09-03T05:55:57.197Z,39.74
2022-09-03T05:58:25.220Z,42.01
2022-09-03T06:00:52.053Z,46.08
2022-09-03T06:03:19.026Z,46.16
2022-09-03T06:05:46.019Z,42.11
2022-09-03T06:08:15.754Z,41.12
2022-09-03T06:10:42.560Z,40.84
2022-09-03T06:13:09.562Z,40.32
2022-09-03T06:15:36.400Z,40.24
2022-09-03T06:18:03.201Z,39.85
2022-09-03T06:20:30.550Z,40.19
2022-09-03T06:22:59.617Z,39.76
2022-09-03T06:25:27.597Z,39.65
2022-09-03T06:27:54.615Z,42.21
2022-09-03T06:30:22.867Z,46.04
2022-09-03T06:32:53.124Z,45.78
2022-09-03T06:35:20.341Z,42.26
2022-09-03T06:37:47.205Z,41.36
2022-09-03T06:40:14.170Z,40.61
2022-09-03T06:42:45.981Z,40.31
2022-09-03T06:45:13.458Z,40.23
2022-09-03T06:47:40.254Z,40.04
2022-09-03T06:50:07.044Z,39.88
2022-09-03T06:52:33.833Z,39.66
2022-09-03T06:55:01.090Z,39.78
2022-09-03T06:57:28.015Z,40.91
2022-09-03T06:59:55.361Z,45.45
2022-09-03T07:02:23.013Z,46.17
2022-09-03T07:04:49.872Z,42.33
2022-09-03T07:07:16.690Z,41.25
2022-09-03T07:09:47.747Z,40.64
2022-09-03T07:12:18.187Z,40.22
2022-09-03T07:14:44.981Z,40.13
2022-09-03T07:17:12.312Z,39.62
2022-09-03T07:19:39.133Z,39.95
2022-09-03T07:22:05.968Z,39.28
2022-09-03T07:24:32.828Z,39.48
2022-09-03T07:27:00.237Z,40.34
2022-09-03T07:29:28.710Z,44.97
2022-09-03T07:31:56.210Z,45.47
2022-09-03T07:34:26.981Z,42.41
2022-09-03T07:36:54.210Z,40.88
2022-09-03T07:39:21.205Z,40.46
2022-09-03T07:41:48.147Z,40.21
2022-09-03T07:44:16.041Z,40.00
2022-09-03T07:46:45.217Z,39.79
2022-09-03T07:49:12.083Z,39.91
2022-09-03T07:51:38.931Z,39.67
2022-09-03T07:54:06.875Z,41.18
2022-09-03T07:56:35.657Z,45.08
2022-09-03T07:59:03.074Z,46.54
2022-09-03T08:01:31.539Z,42.50
2022-09-03T08:03:58.499Z,40.93
2022-09-03T08:06:25.430Z,40.64
2022-09-03T08:08:52.212Z,40.14
2022-09-03T08:11:19.278Z,40.23
2022-09-03T08:13:46.108Z,40.14
2022-09-03T08:16:12.930Z,39.82
2022-09-03T08:18:39.989Z,39.74
2022-09-03T08:21:07.192Z,39.72
2022-09-03T08:23:34.409Z,44.23
2022-09-03T08:26:01.293Z,46.16
2022-09-03T08:28:28.177Z,43.34
2022-09-03T08:30:55.376Z,41.49
2022-09-03T08:33:36.966Z,40.86
2022-09-03T08:36:04.467Z,40.25
2022-09-03T08:38:31.453Z,39.96
2022-09-03T08:40:58.268Z,39.57
2022-09-03T08:43:25.161Z,39.80
2022-09-03T08:45:51.979Z,39.65
2022-09-03T08:48:21.735Z,39.53
2022-09-03T08:50:55.960Z,44.52
2022-09-03T08:53:22.782Z,45.64
2022-09-03T08:55:50.570Z,42.55
2022-09-03T08:58:18.438Z,41.07
2022-09-03T09:00:45.258Z,40.37
2022-09-03T09:03:12.032Z,39.82
2022-09-03T09:05:38.840Z,39.70
2022-09-03T09:08:05.676Z,39.87
2022-09-03T09:10:32.520Z,39.71
2022-09-03T09:12:59.341Z,41.61
2022-09-03T09:15:26.313Z,44.54
2022-09-03T09:17:53.105Z,45.23
2022-09-03T09:20:20.124Z,41.45
2022-09-03T09:22:47.307Z,40.74
2022-09-03T09:25:14.464Z,40.32
2022-09-03T09:27:41.262Z,39.89
2022-09-03T09:30:08.129Z,39.70
2022-09-03T09:32:38.286Z,39.70
2022-09-03T09:35:05.089Z,39.46
2022-09-03T09:37:31.909Z,41.92
2022-09-03T09:39:58.850Z,44.96
2022-09-03T09:42:25.801Z,44.80
2022-09-03T09:44:52.731Z,41.26
2022-09-03T09:47:19.727Z,40.50
2022-09-03T09:49:46.779Z,40.10
2022-09-03T09:52:13.602Z,39.96
2022-09-03T09:54:40.700Z,39.81
2022-09-03T09:57:07.896Z,39.21
2022-09-03T09:59:34.773Z,43.44
2022-09-03T10:02:01.593Z,45.29
2022-09-03T10:04:32.884Z,43.76
2022-09-03T10:07:00.135Z,40.94
2022-09-03T10:09:31.619Z,40.32
2022-09-03T10:11:58.781Z,39.95
2022-09-03T10:14:25.592Z,39.68
2022-09-03T10:16:52.375Z,39.43
2022-09-03T10:19:20.929Z,39.46
2022-09-03T10:21:47.728Z,41.35
2022-09-03T10:24:15.602Z,45.02
2022-09-03T10:26:45.789Z,45.47
2022-09-03T10:29:12.600Z,41.80
2022-09-03T10:31:39.438Z,40.70
2022-09-03T10:34:06.360Z,40.22
2022-09-03T10:36:33.273Z,39.93
2022-09-03T10:39:00.894Z,39.77
2022-09-03T10:41:29.851Z,39.69
2022-09-03T10:43:58.155Z,42.02
2022-09-03T10:46:25.009Z,45.50
2022-09-03T10:48:51.842Z,45.18
2022-09-03T10:51:18.658Z,41.40
2022-09-03T10:53:46.596Z,40.40
2022-09-03T10:56:17.212Z,40.19
2022-09-03T10:58:44.033Z,39.88
2022-09-03T11:01:10.949Z,39.53
2022-09-03T11:03:38.989Z,39.37
2022-09-03T11:06:06.215Z,40.11
2022-09-03T11:08:34.280Z,44.57
2022-09-03T11:11:01.073Z,45.91
2022-09-03T11:13:28.300Z,42.16
2022-09-03T11:15:55.185Z,40.69
2022-09-03T11:18:22.151Z,40.27
2022-09-03T11:20:49.359Z,40.01
2022-09-03T11:23:16.141Z,40.02
2022-09-03T11:25:42.958Z,39.81
2022-09-03T11:28:11.582Z,39.66
2022-09-03T11:30:38.476Z,43.54
2022-09-03T11:33:05.385Z,46.17
2022-09-03T11:35:32.187Z,42.80
2022-09-03T11:37:58.995Z,40.91
2022-09-03T11:40:26.821Z,40.13
2022-09-03T11:42:53.648Z,40.25
2022-09-03T11:45:20.444Z,40.00
2022-09-03T11:47:47.258Z,39.51
2022-09-03T11:50:14.381Z,39.65
2022-09-03T11:52:41.248Z,43.15
2022-09-03T11:55:08.195Z,45.38
2022-09-03T11:57:36.001Z,43.29
2022-09-03T12:00:02.817Z,40.95
2022-09-03T12:02:29.680Z,40.19
2022-09-03T12:04:56.553Z,40.02
2022-09-03T12:07:23.354Z,39.97
2022-09-03T12:09:51.466Z,39.39
2022-09-03T12:12:18.337Z,39.55
2022-09-03T12:14:47.034Z,39.42
2022-09-03T12:17:13.848Z,43.55
2022-09-03T12:19:42.038Z,45.76
2022-09-03T12:22:09.255Z,42.84
2022-09-03T12:24:38.320Z,40.35
2022-09-03T12:27:05.417Z,40.27
2022-09-03T12:29:32.208Z,39.74
2022-09-03T12:31:58.999Z,39.51
2022-09-03T12:34:27.254Z,39.62
2022-09-03T12:36:54.112Z,39.73
2022-09-03T12:40:05.065Z,43.24
2022-09-03T12:42:07.751Z,45.61
2022-09-03T12:44:34.547Z,42.44
2022-09-03T12:49:48.375Z,40.24
2022-09-03T12:52:15.484Z,39.92
2022-09-03T12:54:42.348Z,39.66
2022-09-03T12:57:09.216Z,39.70
2022-09-03T12:59:37.579Z,39.63
2022-09-03T13:02:04.453Z,44.12
2022-09-03T13:04:32.404Z,45.74
2022-09-03T13:07:00.839Z,42.24
2022-09-03T13:09:29.846Z,40.72
2022-09-03T13:11:59.021Z,39.92
2022-09-03T13:14:25.810Z,39.59
2022-09-03T13:16:53.984Z,39.79
2022-09-03T13:19:20.846Z,39.14
2022-09-03T13:21:47.700Z,40.63
2022-09-03T13:24:14.505Z,44.43
2022-09-03T13:26:41.508Z,45.59
2022-09-03T13:29:08.326Z,41.70
2022-09-03T13:31:35.131Z,40.33
2022-09-03T13:34:01.964Z,40.13
2022-09-03T13:36:28.865Z,39.50
2022-09-03T13:38:55.652Z,39.36
2022-09-03T13:41:22.465Z,39.51
2022-09-03T13:43:50.661Z,39.27
2022-09-03T13:46:17.643Z,43.31
2022-09-03T13:49:03.120Z,45.16
2022-09-03T13:51:29.953Z,41.97
2022-09-03T13:53:56.757Z,40.31
2022-09-03T13:56:23.754Z,40.02
2022-09-03T13:58:50.540Z,39.73
2022-09-03T14:01:20.161Z,39.37
2022-09-03T14:03:49.204Z,39.26
2022-09-03T14:06:16.188Z,39.38
2022-09-03T14:08:54.388Z,42.83
2022-09-03T14:11:22.365Z,45.38
2022-09-03T14:13:49.242Z,42.79
2022-09-03T14:16:16.082Z,40.28
2022-09-03T14:18:42.996Z,39.88
2022-09-03T14:21:09.790Z,39.39
2022-09-03T14:23:36.610Z,39.48
2022-09-03T14:26:03.615Z,39.33
2022-09-03T14:28:30.519Z,42.90
2022-09-03T14:30:57.354Z,45.53
2022-09-03T14:33:24.278Z,42.99
2022-09-03T14:35:51.118Z,40.69
2022-09-03T14:38:20.534Z,40.08
2022-09-03T14:40:49.480Z,39.81
2022-09-03T14:43:16.324Z,39.55
2022-09-03T14:45:43.340Z,39.47
2022-09-03T14:48:10.152Z,39.05
2022-09-03T14:50:37.197Z,41.77
2022-09-03T14:53:06.108Z,45.31
2022-09-03T14:55:33.097Z,44.20
2022-09-03T14:57:59.948Z,40.76
2022-09-03T15:00:31.421Z,40.37
2022-09-03T15:02:58.265Z,39.62
2022-09-03T15:05:25.065Z,39.46
2022-09-03T15:07:51.901Z,39.50
2022-09-03T15:10:19.101Z,39.23
2022-09-03T15:12:45.946Z,43.22
2022-09-03T15:15:13.097Z,45.37
2022-09-03T15:17:39.893Z,43.26
2022-09-03T15:20:06.996Z,40.65
2022-09-03T15:22:33.832Z,39.89
2022-09-03T15:25:00.782Z,39.70
2022-09-03T15:27:27.693Z,39.62
2022-09-03T15:29:54.699Z,39.29
2022-09-03T15:32:21.780Z,39.06
2022-09-03T15:34:48.604Z,39.18
2022-09-03T15:37:15.485Z,43.09
2022-09-03T15:39:42.507Z,45.34
2022-09-03T15:42:10.285Z,42.33
2022-09-03T15:44:37.926Z,40.49
2022-09-03T15:47:05.211Z,39.68
2022-09-03T15:49:40.791Z,39.54
2022-09-03T15:52:08.302Z,39.62
2022-09-03T15:54:35.533Z,39.32
2022-09-03T15:57:02.357Z,39.28
2022-09-03T15:59:29.216Z,42.46
2022-09-03T16:01:56.521Z,45.28
2022-09-03T16:04:24.732Z,43.31
2022-09-03T16:06:51.603Z,40.63
2022-09-03T16:09:18.703Z,40.40
2022-09-03T16:11:45.505Z,39.65
2022-09-03T16:14:12.341Z,39.61
2022-09-03T16:16:42.395Z,39.47
2022-09-03T16:19:10.919Z,39.28
2022-09-03T16:21:38.562Z,40.81
2022-09-03T16:24:05.408Z,44.57
2022-09-03T16:26:33.557Z,45.40
2022-09-03T16:29:00.440Z,41.31
2022-09-03T16:31:27.335Z,40.29
2022-09-03T16:33:54.225Z,39.72
2022-09-03T16:36:21.018Z,39.69
2022-09-03T16:38:48.328Z,39.26
2022-09-03T16:41:15.602Z,39.01
2022-09-03T16:43:42.966Z,39.28
2022-09-03T16:46:10.085Z,42.46
2022-09-03T16:48:36.970Z,45.02
2022-09-03T16:51:06.200Z,44.22
2022-09-03T16:53:33.874Z,40.81
2022-09-03T16:56:00.689Z,39.81
2022-09-03T16:58:27.489Z,39.51
2022-09-03T17:00:54.364Z,39.17
2022-09-03T17:03:26.379Z,39.08
2022-09-03T17:05:53.537Z,39.12
2022-09-03T17:08:20.340Z,40.03
2022-09-03T17:10:47.238Z,44.07
2022-09-03T17:13:14.041Z,45.15
2022-09-03T17:15:40.848Z,41.69
2022-09-03T17:18:07.677Z,40.36
2022-09-03T17:20:34.785Z,40.01
2022-09-03T17:23:04.517Z,39.67
2022-09-03T17:25:31.332Z,39.46
2022-09-03T17:27:58.128Z,39.03
2022-09-03T17:30:25.073Z,39.32
2022-09-03T17:33:03.931Z,41.72
2022-09-03T17:35:33.811Z,44.61
2022-09-03T17:38:03.709Z,44.17
2022-09-03T17:40:30.598Z,40.64
2022-09-03T17:42:57.525Z,40.12
2022-09-03T17:45:24.311Z,39.78
2022-09-03T17:47:51.184Z,39.56
2022-09-03T17:50:18.042Z,39.37
2022-09-03T17:52:44.843Z,39.32
2022-09-03T17:55:11.672Z,38.86
2022-09-03T17:57:38.472Z,39.42
2022-09-03T18:00:06.321Z,43.91
2022-09-03T18:02:33.128Z,45.48
2022-09-03T18:05:00.245Z,42.37
2022-09-03T18:07:27.673Z,40.63
2022-09-03T18:09:54.484Z,40.09
2022-09-03T18:12:21.282Z,39.83
2022-09-03T18:14:48.080Z,39.46
2022-09-03T18:17:14.880Z,39.58
2022-09-03T18:20:00.574Z,39.10
2022-09-03T18:22:45.925Z,39.18
2022-09-03T18:25:31.443Z,42.64
2022-09-03T18:28:16.829Z,44.27
2022-09-03T18:31:02.155Z,42.24
2022-09-03T18:33:47.602Z,40.35
2022-09-03T18:36:32.877Z,39.58
2022-09-03T18:39:18.250Z,39.42
2022-09-03T18:42:03.593Z,39.11
2022-09-03T18:44:48.898Z,39.17
2022-09-03T18:50:39.740Z,44.13
2022-09-03T18:53:29.458Z,45.13
2022-09-03T18:56:15.405Z,41.34
2022-09-03T18:59:00.777Z,40.04
2022-09-03T19:01:46.283Z,39.61
2022-09-03T19:04:31.932Z,39.60
2022-09-03T19:07:17.282Z,39.11
2022-09-03T19:10:02.728Z,38.97
2022-09-03T19:12:51.798Z,38.64
2022-09-03T19:15:45.258Z,42.48
2022-09-03T19:18:30.535Z,45.21
2022-09-03T19:21:15.880Z,42.58
2022-09-03T19:24:01.159Z,40.42
2022-09-03T19:26:46.653Z,40.11
2022-09-03T19:29:32.185Z,39.43
2022-09-03T19:32:17.377Z,39.37
2022-09-03T19:35:02.698Z,39.30
2022-09-03T19:37:47.985Z,39.08
2022-09-03T19:40:33.347Z,39.06
2022-09-03T19:43:18.603Z,43.75
2022-09-03T19:46:04.106Z,45.38
2022-09-03T19:48:49.575Z,41.86
2022-09-03T19:51:34.878Z,40.34
2022-09-03T19:54:20.276Z,39.90
2022-09-03T19:57:05.754Z,39.70
2022-09-03T19:59:51.484Z,39.46
2022-09-03T20:02:36.930Z,39.21
2022-09-03T20:05:22.294Z,39.23
2022-09-03T20:08:07.750Z,39.28
2022-09-03T20:10:34.636Z,44.13
2022-09-03T20:13:01.514Z,45.86
2022-09-03T20:15:28.388Z,42.56
2022-09-03T20:17:56.045Z,40.53
2022-09-03T20:20:25.243Z,40.26
2022-09-03T20:22:52.217Z,39.81
2022-09-03T20:25:19.017Z,39.66
2022-09-03T20:27:45.825Z,39.46
2022-09-03T20:30:12.682Z,39.29
2022-09-03T20:32:39.594Z,38.92
2022-09-03T20:35:06.873Z,39.12
2022-09-03T20:37:36.053Z,40.68
2022-09-03T20:40:04.613Z,44.14
2022-09-03T20:42:31.546Z,45.90
2022-09-03T20:44:58.385Z,41.74
2022-09-03T20:47:26.669Z,40.56
2022-09-03T20:49:55.062Z,40.11
2022-09-03T20:52:25.588Z,39.66
2022-09-03T20:54:52.383Z,39.32
2022-09-03T20:57:19.500Z,39.40
2022-09-03T20:59:47.130Z,39.23
2022-09-03T21:02:13.981Z,39.23
2022-09-03T21:04:40.800Z,39.13
2022-09-03T21:07:07.608Z,43.47
2022-09-03T21:09:34.461Z,45.48
2022-09-03T21:12:01.589Z,42.71
2022-09-03T21:14:28.393Z,40.88
2022-09-03T21:16:55.255Z,40.17
2022-09-03T21:19:22.050Z,39.89
2022-09-03T21:21:48.914Z,39.65
2022-09-03T21:24:15.714Z,39.43
2022-09-03T21:26:45.973Z,39.32
2022-09-03T21:29:12.845Z,38.97
2022-09-03T21:31:39.762Z,39.01
2022-09-03T21:34:07.751Z,40.32
2022-09-03T21:36:34.790Z,44.36
2022-09-03T21:39:01.699Z,45.44
2022-09-03T21:41:28.558Z,42.22
2022-09-03T21:43:55.393Z,40.70
2022-09-03T21:46:22.302Z,40.08
2022-09-03T21:48:49.178Z,39.68
2022-09-03T21:51:16.722Z,39.32
2022-09-03T21:53:43.583Z,38.98
2022-09-03T21:56:10.381Z,39.04
2022-09-03T21:58:37.191Z,39.02
2022-09-03T22:01:06.205Z,41.34
2022-09-03T22:03:33.559Z,45.28
2022-09-03T22:06:00.364Z,45.25
2022-09-03T22:08:27.168Z,41.43
2022-09-03T22:10:54.314Z,40.61
2022-09-03T22:13:21.205Z,40.12
2022-09-03T22:15:51.839Z,39.79
2022-09-03T22:18:23.549Z,39.39
2022-09-03T22:21:01.177Z,39.20
2022-09-03T22:23:27.997Z,39.09
2022-09-03T22:25:58.796Z,39.13
2022-09-03T22:28:25.946Z,38.95
2022-09-03T22:30:52.928Z,42.74
2022-09-03T22:33:19.951Z,45.49
2022-09-03T22:35:46.783Z,43.94
2022-09-03T22:38:13.621Z,41.16
2022-09-03T22:40:40.425Z,40.42
2022-09-03T22:43:07.279Z,39.71
2022-09-03T22:45:34.304Z,39.67
2022-09-03T22:48:01.178Z,39.49
2022-09-03T22:50:27.961Z,39.31
2022-09-03T22:52:54.829Z,39.36
2022-09-03T22:55:23.110Z,39.08
2022-09-03T22:57:49.992Z,39.09
2022-09-03T23:00:17.647Z,43.65
2022-09-03T23:02:44.449Z,45.68
2022-09-03T23:05:11.241Z,42.90
2022-09-03T23:07:38.043Z,41.10
2022-09-03T23:10:04.925Z,40.19
2022-09-03T23:12:31.948Z,39.90
2022-09-03T23:14:59.633Z,39.64
2022-09-03T23:19:56.460Z,39.25
2022-09-03T23:22:23.269Z,39.08
2022-09-03T23:24:50.059Z,39.12
2022-09-03T23:27:17.899Z,40.02
2022-09-03T23:29:45.395Z,41.89
2022-09-03T23:32:12.215Z,44.15
2022-09-03T23:34:40.551Z,44.17
2022-09-03T23:37:31.993Z,41.92
2022-09-03T23:39:55.715Z,40.49
2022-09-03T23:42:22.564Z,40.25
2022-09-03T23:44:52.090Z,39.96
2022-09-03T23:47:19.073Z,39.64
2022-09-03T23:49:46.116Z,39.41
2022-09-03T23:52:13.029Z,39.18
2022-09-03T23:54:39.871Z,39.27
2022-09-03T23:57:06.824Z,39.17
2022-09-03T23:59:33.608Z,38.90
